sensor_id;sensor_type;location;lat;lon;timestamp;pressure;altitude;pressure_sealevel;temperature;humidity
7584;BME280;3833;41.764;26.204;2022-12-20T00:01:07;103082.03;;;-0.07;100.00
7584;BME280;3833;41.764;26.204;2022-12-20T00:03:34;103071.19;;;-0.19;100.00
7584;BME280;3833;41.764;26.204;2022-12-20T00:06:02;103024.75;;;-0.60;100.00
7584;BME280;3833;41.764;26.204;2022-12-20T00:08:29;103074.44;;;-0.40;100.00
7584;BME280;3833;41.764;26.204;2022-12-20T00:10:56;103069.72;;;-0.14;100.00
7584;BME280;3833;41.764;26.204;2022-12-20T00:13:26;103015.44;;;-0.21;100.00
7584;BME280;3833;41.764;26.204;2022-12-20T00:16:02;103069.25;;;-0.05;100.00
7584;BME280;3833;41.764;26.204;2022-12-20T00:18:29;103061.91;;;-0.34;100.00
7584;BME280;3833;41.764;26.204;2022-12-20T00:20:57;103044.91;;;-0.50;100.00
7584;BME280;3833;41.764;26.204;2022-12-20T00:23:24;103058.59;;;-0.32;100.00
7584;BME280;3833;41.764;26.204;2022-12-20T00:25:50;103069.09;;;-0.08;100.00
7584;BME280;3833;41.764;26.204;2022-12-20T00:28:20;103060.22;;;0.02;100.00
7584;BME280;3833;41.764;26.204;2022-12-20T00:30:53;103062.34;;;-0.06;100.00
7584;BME280;3833;41.764;26.204;2022-12-20T00:33:20;103068.41;;;-0.23;100.00
7584;BME280;3833;41.764;26.204;2022-12-20T00:35:47;103068.78;;;0.03;100.00
7584;BME280;3833;41.764;26.204;2022-12-20T00:38:16;103053.19;;;0.17;100.00
7584;BME280;3833;41.764;26.204;2022-12-20T00:40:43;103046.97;;;0.31;100.00
7584;BME280;3833;41.764;26.204;2022-12-20T00:43:10;103050.75;;;0.20;100.00
7584;BME280;3833;41.764;26.204;2022-12-20T00:45:37;103056.44;;;0.13;100.00
7584;BME280;3833;41.764;26.204;2022-12-20T00:48:06;103059.28;;;0.19;100.00
7584;BME280;3833;41.764;26.204;2022-12-20T00:50:32;103048.81;;;0.15;100.00
7584;BME280;3833;41.764;26.204;2022-12-20T00:52:59;103057.13;;;0.47;100.00
7584;BME280;3833;41.764;26.204;2022-12-20T00:55:26;103050.38;;;0.30;100.00
7584;BME280;3833;41.764;26.204;2022-12-20T00:57:53;103049.94;;;0.21;100.00
7584;BME280;3833;41.764;26.204;2022-12-20T01:00:20;103045.28;;;0.13;100.00
7584;BME280;3833;41.764;26.204;2022-12-20T01:02:46;103049.19;;;0.24;100.00
7584;BME280;3833;41.764;26.204;2022-12-20T01:05:15;103003.56;;;0.18;100.00
7584;BME280;3833;41.764;26.204;2022-12-20T01:07:44;103041.56;;;0.06;100.00
7584;BME280;3833;41.764;26.204;2022-12-20T01:10:11;103032.28;;;-0.09;100.00
7584;BME280;3833;41.764;26.204;2022-12-20T01:12:38;103030.59;;;-0.08;100.00
7584;BME280;3833;41.764;26.204;2022-12-20T01:15:06;103023.59;;;0.06;100.00
7584;BME280;3833;41.764;26.204;2022-12-20T01:17:33;103026.63;;;0.17;100.00
7584;BME280;3833;41.764;26.204;2022-12-20T01:20:00;103019.78;;;-0.02;100.00
7584;BME280;3833;41.764;26.204;2022-12-20T01:22:28;103010.59;;;-0.15;100.00
7584;BME280;3833;41.764;26.204;2022-12-20T01:24:55;102975.63;;;-0.50;100.00
7584;BME280;3833;41.764;26.204;2022-12-20T01:27:22;102994.63;;;-0.27;100.00
7584;BME280;3833;41.764;26.204;2022-12-20T01:29:49;102961.97;;;-0.31;100.00
7584;BME280;3833;41.764;26.204;2022-12-20T01:32:16;103014.28;;;-0.10;100.00
7584;BME280;3833;41.764;26.204;2022-12-20T01:34:42;102978.53;;;-0.42;100.00
7584;BME280;3833;41.764;26.204;2022-12-20T01:37:09;103007.72;;;-0.40;100.00
7584;BME280;3833;41.764;26.204;2022-12-20T01:39:37;103012.75;;;-0.24;100.00
7584;BME280;3833;41.764;26.204;2022-12-20T01:42:04;103007.22;;;-0.14;100.00
7584;BME280;3833;41.764;26.204;2022-12-20T01:44:50;102994.72;;;-0.07;100.00
7584;BME280;3833;41.764;26.204;2022-12-20T01:47:20;102964.47;;;-0.50;100.00
7584;BME280;3833;41.764;26.204;2022-12-20T01:49:49;102979.09;;;-0.30;100.00
7584;BME280;3833;41.764;26.204;2022-12-20T01:52:20;102977.28;;;-0.33;100.00
7584;BME280;3833;41.764;26.204;2022-12-20T01:54:51;102991.16;;;-0.10;100.00
7584;BME280;3833;41.764;26.204;2022-12-20T01:57:23;102987.09;;;-0.05;100.00
7584;BME280;3833;41.764;26.204;2022-12-20T01:59:51;102984.22;;;-0.30;100.00
7584;BME280;3833;41.764;26.204;2022-12-20T02:02:21;102982.22;;;-0.37;100.00
7584;BME280;3833;41.764;26.204;2022-12-20T02:04:48;102977.69;;;-0.43;100.00
7584;BME280;3833;41.764;26.204;2022-12-20T02:07:17;102977.38;;;-0.31;100.00
7584;BME280;3833;41.764;26.204;2022-12-20T02:09:48;102971.97;;;-0.18;100.00
7584;BME280;3833;41.764;26.204;2022-12-20T02:12:19;102917.16;;;-0.57;100.00
7584;BME280;3833;41.764;26.204;2022-12-20T02:14:58;102959.50;;;-0.47;100.00
7584;BME280;3833;41.764;26.204;2022-12-20T02:17:35;102961.03;;;-0.51;100.00
7584;BME280;3833;41.764;26.204;2022-12-20T02:20:32;102968.97;;;-0.27;100.00
7584;BME280;3833;41.764;26.204;2022-12-20T02:23:29;102966.28;;;-0.11;100.00
7584;BME280;3833;41.764;26.204;2022-12-20T02:26:18;102943.84;;;-0.34;100.00
7584;BME280;3833;41.764;26.204;2022-12-20T02:29:05;102955.75;;;-0.36;100.00
7584;BME280;3833;41.764;26.204;2022-12-20T02:31:38;102951.81;;;-0.28;100.00
7584;BME280;3833;41.764;26.204;2022-12-20T02:34:08;102961.88;;;-0.14;100.00
7584;BME280;3833;41.764;26.204;2022-12-20T02:36:36;102954.00;;;-0.18;100.00
7584;BME280;3833;41.764;26.204;2022-12-20T02:39:04;102902.88;;;-0.69;100.00
7584;BME280;3833;41.764;26.204;2022-12-20T02:41:33;102918.75;;;-0.59;100.00
7584;BME280;3833;41.764;26.204;2022-12-20T02:44:05;102953.69;;;-0.43;100.00
7584;BME280;3833;41.764;26.204;2022-12-20T02:46:53;102952.50;;;-0.32;100.00
7584;BME280;3833;41.764;26.204;2022-12-20T02:49:24;102948.66;;;-0.23;100.00
7584;BME280;3833;41.764;26.204;2022-12-20T02:51:55;102941.16;;;-0.37;100.00
7584;BME280;3833;41.764;26.204;2022-12-20T02:54:23;102930.19;;;-0.52;100.00
7584;BME280;3833;41.764;26.204;2022-12-20T02:56:55;102947.47;;;-0.48;100.00
7584;BME280;3833;41.764;26.204;2022-12-20T02:59:25;102942.00;;;-0.37;100.00
7584;BME280;3833;41.764;26.204;2022-12-20T03:01:56;102938.44;;;-0.21;100.00
7584;BME280;3833;41.764;26.204;2022-12-20T03:04:25;102943.56;;;-0.21;100.00
7584;BME280;3833;41.764;26.204;2022-12-20T03:06:59;102949.25;;;-0.28;100.00
7584;BME280;3833;41.764;26.204;2022-12-20T03:09:26;102939.91;;;-0.45;100.00
7584;BME280;3833;41.764;26.204;2022-12-20T03:11:53;102945.38;;;-0.38;100.00
7584;BME280;3833;41.764;26.204;2022-12-20T03:14:20;102946.81;;;-0.25;100.00
7584;BME280;3833;41.764;26.204;2022-12-20T03:16:47;102944.91;;;-0.29;100.00
7584;BME280;3833;41.764;26.204;2022-12-20T03:19:15;102932.31;;;-0.44;100.00
7584;BME280;3833;41.764;26.204;2022-12-20T03:21:42;102939.78;;;-0.48;100.00
7584;BME280;3833;41.764;26.204;2022-12-20T03:24:09;102936.47;;;-0.46;100.00
7584;BME280;3833;41.764;26.204;2022-12-20T03:26:38;102943.91;;;-0.33;100.00
7584;BME280;3833;41.764;26.204;2022-12-20T03:29:04;102947.16;;;-0.18;100.00
7584;BME280;3833;41.764;26.204;2022-12-20T03:31:31;102924.84;;;-0.38;100.00
7584;BME280;3833;41.764;26.204;2022-12-20T03:33:58;102931.56;;;-0.41;100.00
7584;BME280;3833;41.764;26.204;2022-12-20T03:36:27;102902.50;;;-0.59;100.00
7584;BME280;3833;41.764;26.204;2022-12-20T03:38:54;102919.00;;;-0.35;100.00
7584;BME280;3833;41.764;26.204;2022-12-20T03:41:22;102931.06;;;-0.14;100.00
7584;BME280;3833;41.764;26.204;2022-12-20T03:43:49;102938.31;;;-0.24;100.00
7584;BME280;3833;41.764;26.204;2022-12-20T03:46:16;102936.53;;;-0.25;100.00
7584;BME280;3833;41.764;26.204;2022-12-20T03:48:43;102936.81;;;-0.38;100.00
7584;BME280;3833;41.764;26.204;2022-12-20T03:51:10;102950.19;;;-0.26;100.00
7584;BME280;3833;41.764;26.204;2022-12-20T03:53:38;102945.75;;;-0.11;100.00
7584;BME280;3833;41.764;26.204;2022-12-20T03:56:05;102933.38;;;-0.20;100.00
7584;BME280;3833;41.764;26.204;2022-12-20T03:58:34;102929.28;;;-0.35;100.00
7584;BME280;3833;41.764;26.204;2022-12-20T04:01:01;102938.59;;;-0.37;100.00
7584;BME280;3833;41.764;26.204;2022-12-20T04:03:28;102942.91;;;-0.36;100.00
7584;BME280;3833;41.764;26.204;2022-12-20T04:05:55;102937.44;;;-0.25;100.00
7584;BME280;3833;41.764;26.204;2022-12-20T04:08:22;102944.00;;;-0.12;100.00
7584;BME280;3833;41.764;26.204;2022-12-20T04:10:50;102941.69;;;-0.25;100.00
7584;BME280;3833;41.764;26.204;2022-12-20T04:13:34;102931.88;;;-0.34;100.00
7584;BME280;3833;41.764;26.204;2022-12-20T04:16:01;102949.94;;;-0.32;100.00
7584;BME280;3833;41.764;26.204;2022-12-20T04:18:27;102948.56;;;-0.24;100.00
7584;BME280;3833;41.764;26.204;2022-12-20T04:20:54;102934.72;;;-0.09;100.00
7584;BME280;3833;41.764;26.204;2022-12-20T04:23:21;102924.13;;;-0.35;100.00
7584;BME280;3833;41.764;26.204;2022-12-20T04:25:48;102919.13;;;-0.51;100.00
7584;BME280;3833;41.764;26.204;2022-12-20T04:28:16;102936.94;;;-0.54;100.00
7584;BME280;3833;41.764;26.204;2022-12-20T04:30:43;102920.59;;;-0.56;100.00
7584;BME280;3833;41.764;26.204;2022-12-20T04:33:09;102904.94;;;-0.43;100.00
7584;BME280;3833;41.764;26.204;2022-12-20T04:35:36;102938.31;;;-0.24;100.00
7584;BME280;3833;41.764;26.204;2022-12-20T04:38:03;102913.06;;;-0.53;100.00
7584;BME280;3833;41.764;26.204;2022-12-20T04:40:30;102928.69;;;-0.47;100.00
7584;BME280;3833;41.764;26.204;2022-12-20T04:42:57;102925.06;;;-0.52;100.00
7584;BME280;3833;41.764;26.204;2022-12-20T04:45:25;102929.28;;;-0.35;100.00
7584;BME280;3833;41.764;26.204;2022-12-20T04:47:52;102932.22;;;-0.26;100.00
7584;BME280;3833;41.764;26.204;2022-12-20T04:50:18;102936.28;;;-0.31;100.00
7584;BME280;3833;41.764;26.204;2022-12-20T04:52:45;102935.59;;;-0.46;100.00
7584;BME280;3833;41.764;26.204;2022-12-20T04:55:29;102933.28;;;-0.59;100.00
7584;BME280;3833;41.764;26.204;2022-12-20T04:57:56;102881.47;;;-0.89;100.00
7584;BME280;3833;41.764;26.204;2022-12-20T05:00:24;102936.97;;;-0.35;100.00
7584;BME280;3833;41.764;26.204;2022-12-20T05:02:51;102940.19;;;-0.58;100.00
7584;BME280;3833;41.764;26.204;2022-12-20T05:05:18;102898.97;;;-0.80;100.00
7584;BME280;3833;41.764;26.204;2022-12-20T05:07:45;102931.09;;;-0.69;100.00
7584;BME280;3833;41.764;26.204;2022-12-20T05:10:12;102940.56;;;-0.68;100.00
7584;BME280;3833;41.764;26.204;2022-12-20T05:12:39;102939.50;;;-0.54;100.00
7584;BME280;3833;41.764;26.204;2022-12-20T05:15:06;102924.31;;;-0.50;100.00
7584;BME280;3833;41.764;26.204;2022-12-20T05:17:35;102928.16;;;-0.59;100.00
7584;BME280;3833;41.764;26.204;2022-12-20T05:20:02;102930.03;;;-0.74;100.00
7584;BME280;3833;41.764;26.204;2022-12-20T05:22:29;102944.47;;;-0.76;100.00
7584;BME280;3833;41.764;26.204;2022-12-20T05:25:13;102925.97;;;-0.69;100.00
7584;BME280;3833;41.764;26.204;2022-12-20T05:27:58;102932.50;;;-0.39;100.00
7584;BME280;3833;41.764;26.204;2022-12-20T05:30:25;102917.47;;;-0.68;100.00
7584;BME280;3833;41.764;26.204;2022-12-20T05:32:53;102932.84;;;-0.68;100.00
7584;BME280;3833;41.764;26.204;2022-12-20T05:35:23;102927.94;;;-0.83;100.00
7584;BME280;3833;41.764;26.204;2022-12-20T05:37:50;102909.75;;;-0.87;100.00
7584;BME280;3833;41.764;26.204;2022-12-20T05:40:17;102921.72;;;-0.69;100.00
7584;BME280;3833;41.764;26.204;2022-12-20T05:42:43;102918.22;;;-0.71;100.00
7584;BME280;3833;41.764;26.204;2022-12-20T05:45:10;102898.19;;;-0.97;100.00
7584;BME280;3833;41.764;26.204;2022-12-20T05:47:37;102915.53;;;-0.91;100.00
7584;BME280;3833;41.764;26.204;2022-12-20T05:50:07;102916.28;;;-0.94;100.00
7584;BME280;3833;41.764;26.204;2022-12-20T05:52:34;102899.84;;;-1.16;100.00
7584;BME280;3833;41.764;26.204;2022-12-20T05:55:00;102916.28;;;-1.11;100.00
7584;BME280;3833;41.764;26.204;2022-12-20T05:57:27;102919.59;;;-1.13;100.00
7584;BME280;3833;41.764;26.204;2022-12-20T05:59:54;102911.16;;;-1.11;100.00
7584;BME280;3833;41.764;26.204;2022-12-20T06:02:21;102867.00;;;-1.05;100.00
7584;BME280;3833;41.764;26.204;2022-12-20T06:04:48;102881.78;;;-1.00;100.00
7584;BME280;3833;41.764;26.204;2022-12-20T06:07:16;102914.56;;;-0.76;100.00
7584;BME280;3833;41.764;26.204;2022-12-20T06:09:43;102922.59;;;-0.68;100.00
7584;BME280;3833;41.764;26.204;2022-12-20T06:12:10;102906.94;;;-0.74;100.00
7584;BME280;3833;41.764;26.204;2022-12-20T06:14:38;102903.84;;;-0.67;100.00
7584;BME280;3833;41.764;26.204;2022-12-20T06:17:05;102910.72;;;-0.66;100.00
7584;BME280;3833;41.764;26.204;2022-12-20T06:19:31;102781.69;;;-1.20;100.00
7584;BME280;3833;41.764;26.204;2022-12-20T06:21:58;102916.28;;;-0.19;100.00
7584;BME280;3833;41.764;26.204;2022-12-20T06:24:27;102914.38;;;-0.23;100.00
7584;BME280;3833;41.764;26.204;2022-12-20T06:26:54;102870.25;;;-0.54;100.00
7584;BME280;3833;41.764;26.204;2022-12-20T06:29:22;102919.13;;;-0.32;100.00
7584;BME280;3833;41.764;26.204;2022-12-20T06:31:49;102921.16;;;-0.25;100.00
7584;BME280;3833;41.764;26.204;2022-12-20T06:34:16;102863.59;;;-0.49;100.00
7584;BME280;3833;41.764;26.204;2022-12-20T06:36:43;102904.56;;;0.06;100.00
7584;BME280;3833;41.764;26.204;2022-12-20T06:39:10;102915.66;;;0.05;100.00
7584;BME280;3833;41.764;26.204;2022-12-20T06:41:38;102910.84;;;0.12;100.00
7584;BME280;3833;41.764;26.204;2022-12-20T06:44:06;102853.47;;;0.12;100.00
7584;BME280;3833;41.764;26.204;2022-12-20T06:46:33;102905.03;;;0.57;100.00
7584;BME280;3833;41.764;26.204;2022-12-20T06:49:00;102904.09;;;0.55;100.00
7584;BME280;3833;41.764;26.204;2022-12-20T06:51:26;102901.22;;;0.68;100.00
7584;BME280;3833;41.764;26.204;2022-12-20T06:53:53;102900.56;;;0.74;100.00
7584;BME280;3833;41.764;26.204;2022-12-20T06:56:20;102905.31;;;0.85;100.00
7584;BME280;3833;41.764;26.204;2022-12-20T06:58:48;102861.84;;;0.69;100.00
7584;BME280;3833;41.764;26.204;2022-12-20T07:01:15;102897.00;;;0.92;100.00
7584;BME280;3833;41.764;26.204;2022-12-20T07:03:42;102892.66;;;0.90;100.00
7584;BME280;3833;41.764;26.204;2022-12-20T07:06:08;102833.19;;;0.60;100.00
7584;BME280;3833;41.764;26.204;2022-12-20T07:08:35;102886.03;;;0.96;100.00
7584;BME280;3833;41.764;26.204;2022-12-20T07:11:04;102884.94;;;1.11;100.00
7584;BME280;3833;41.764;26.204;2022-12-20T07:13:31;102887.78;;;1.19;100.00
7584;BME280;3833;41.764;26.204;2022-12-20T07:16:00;102860.84;;;1.09;100.00
7584;BME280;3833;41.764;26.204;2022-12-20T07:18:28;102874.28;;;1.24;100.00
7584;BME280;3833;41.764;26.204;2022-12-20T07:20:58;102834.50;;;1.38;100.00
7584;BME280;3833;41.764;26.204;2022-12-20T07:23:25;102888.72;;;1.66;100.00
7584;BME280;3833;41.764;26.204;2022-12-20T07:25:53;102884.13;;;1.81;100.00
7584;BME280;3833;41.764;26.204;2022-12-20T07:28:23;102886.88;;;1.86;100.00
7584;BME280;3833;41.764;26.204;2022-12-20T07:30:50;102876.78;;;1.92;100.00
7584;BME280;3833;41.764;26.204;2022-12-20T07:33:18;102885.97;;;2.08;100.00
7584;BME280;3833;41.764;26.204;2022-12-20T07:35:45;102812.38;;;1.67;100.00
7584;BME280;3833;41.764;26.204;2022-12-20T07:38:12;102892.44;;;1.98;100.00
7584;BME280;3833;41.764;26.204;2022-12-20T07:40:39;102901.34;;;1.82;100.00
7584;BME280;3833;41.764;26.204;2022-12-20T07:43:07;102884.44;;;1.90;100.00
7584;BME280;3833;41.764;26.204;2022-12-20T07:45:34;102888.66;;;2.11;100.00
7584;BME280;3833;41.764;26.204;2022-12-20T07:48:02;102868.97;;;2.13;100.00
7584;BME280;3833;41.764;26.204;2022-12-20T07:50:31;102885.22;;;2.37;100.00
7584;BME280;3833;41.764;26.204;2022-12-20T07:52:59;102880.75;;;2.58;100.00
7584;BME280;3833;41.764;26.204;2022-12-20T07:55:26;102849.91;;;2.61;100.00
7584;BME280;3833;41.764;26.204;2022-12-20T07:57:57;102832.09;;;2.69;100.00
7584;BME280;3833;41.764;26.204;2022-12-20T08:00:27;102865.66;;;3.24;100.00
7584;BME280;3833;41.764;26.204;2022-12-20T08:02:58;102857.22;;;2.74;100.00
7584;BME280;3833;41.764;26.204;2022-12-20T08:05:31;102855.44;;;2.47;100.00
7584;BME280;3833;41.764;26.204;2022-12-20T08:08:00;102857.63;;;2.33;100.00
7584;BME280;3833;41.764;26.204;2022-12-20T08:10:30;102872.88;;;2.27;100.00
7584;BME280;3833;41.764;26.204;2022-12-20T08:12:57;102858.16;;;2.25;100.00
7584;BME280;3833;41.764;26.204;2022-12-20T08:15:25;102858.25;;;2.28;100.00
7584;BME280;3833;41.764;26.204;2022-12-20T08:17:54;102733.47;;;1.69;100.00
7584;BME280;3833;41.764;26.204;2022-12-20T08:20:26;102849.47;;;2.48;100.00
7584;BME280;3833;41.764;26.204;2022-12-20T08:22:58;102839.69;;;2.64;100.00
7584;BME280;3833;41.764;26.204;2022-12-20T08:25:34;102837.44;;;2.75;100.00
7584;BME280;3833;41.764;26.204;2022-12-20T08:28:02;102847.81;;;2.76;100.00
7584;BME280;3833;41.764;26.204;2022-12-20T08:30:31;102833.00;;;2.69;100.00
7584;BME280;3833;41.764;26.204;2022-12-20T08:32:58;102820.06;;;2.97;100.00
7584;BME280;3833;41.764;26.204;2022-12-20T08:35:26;102841.72;;;3.59;100.00
7584;BME280;3833;41.764;26.204;2022-12-20T08:37:57;102830.22;;;3.81;100.00
7584;BME280;3833;41.764;26.204;2022-12-20T08:40:26;102802.63;;;3.78;100.00
7584;BME280;3833;41.764;26.204;2022-12-20T08:42:53;102817.09;;;4.04;100.00
7584;BME280;3833;41.764;26.204;2022-12-20T08:45:23;102820.91;;;4.19;100.00
7584;BME280;3833;41.764;26.204;2022-12-20T08:47:54;102711.03;;;3.67;100.00
7584;BME280;3833;41.764;26.204;2022-12-20T08:50:21;102805.06;;;4.41;100.00
7584;BME280;3833;41.764;26.204;2022-12-20T08:52:48;102802.56;;;4.44;100.00
7584;BME280;3833;41.764;26.204;2022-12-20T08:55:16;102791.47;;;4.48;100.00
7584;BME280;3833;41.764;26.204;2022-12-20T08:57:44;102791.84;;;4.28;100.00
7584;BME280;3833;41.764;26.204;2022-12-20T09:00:12;102769.34;;;4.25;100.00
7584;BME280;3833;41.764;26.204;2022-12-20T09:02:39;102791.53;;;4.51;100.00
7584;BME280;3833;41.764;26.204;2022-12-20T09:05:07;102791.13;;;4.72;100.00
7584;BME280;3833;41.764;26.204;2022-12-20T09:07:34;102784.44;;;4.81;100.00
7584;BME280;3833;41.764;26.204;2022-12-20T09:10:03;102781.00;;;4.82;100.00
7584;BME280;3833;41.764;26.204;2022-12-20T09:12:31;102771.94;;;5.02;100.00
7584;BME280;3833;41.764;26.204;2022-12-20T09:15:05;102744.22;;;4.95;100.00
7584;BME280;3833;41.764;26.204;2022-12-20T09:17:32;102762.84;;;5.19;100.00
7584;BME280;3833;41.764;26.204;2022-12-20T09:19:59;102766.41;;;5.25;100.00
7584;BME280;3833;41.764;26.204;2022-12-20T09:22:27;102748.56;;;5.39;100.00
7584;BME280;3833;41.764;26.204;2022-12-20T09:24:54;102757.56;;;5.59;100.00
7584;BME280;3833;41.764;26.204;2022-12-20T09:27:21;102753.44;;;5.70;100.00
7584;BME280;3833;41.764;26.204;2022-12-20T09:29:49;102733.75;;;6.31;99.81
7584;BME280;3833;41.764;26.204;2022-12-20T09:32:16;102706.09;;;5.78;99.26
7584;BME280;3833;41.764;26.204;2022-12-20T09:34:42;102739.53;;;6.15;97.61
7584;BME280;3833;41.764;26.204;2022-12-20T09:37:09;102740.53;;;6.21;96.63
7584;BME280;3833;41.764;26.204;2022-12-20T09:39:36;102736.13;;;6.18;93.73
7584;BME280;3833;41.764;26.204;2022-12-20T09:42:06;102731.16;;;6.32;95.32
7584;BME280;3833;41.764;26.204;2022-12-20T09:44:34;102709.81;;;6.50;94.12
7584;BME280;3833;41.764;26.204;2022-12-20T09:47:06;102724.22;;;6.94;92.27
7584;BME280;3833;41.764;26.204;2022-12-20T09:49:39;102699.09;;;6.91;89.19
7584;BME280;3833;41.764;26.204;2022-12-20T09:55:11;102719.59;;;6.69;89.76
7584;BME280;3833;41.764;26.204;2022-12-20T09:57:53;102717.81;;;6.66;90.35
7584;BME280;3833;41.764;26.204;2022-12-20T10:00:23;102702.19;;;6.63;88.81
7584;BME280;3833;41.764;26.204;2022-12-20T10:02:52;102709.91;;;6.57;88.58
7584;BME280;3833;41.764;26.204;2022-12-20T10:05:32;102648.13;;;6.32;89.46
7584;BME280;3833;41.764;26.204;2022-12-20T10:08:05;102691.09;;;6.75;90.36
7584;BME280;3833;41.764;26.204;2022-12-20T10:10:44;102687.13;;;7.05;89.26
7584;BME280;3833;41.764;26.204;2022-12-20T10:16:12;102687.44;;;7.32;87.20
7584;BME280;3833;41.764;26.204;2022-12-20T10:18:51;102688.16;;;7.19;87.56
7584;BME280;3833;41.764;26.204;2022-12-20T10:21:32;102668.38;;;7.33;85.75
7584;BME280;3833;41.764;26.204;2022-12-20T10:24:03;102680.44;;;7.28;84.86
7584;BME280;3833;41.764;26.204;2022-12-20T10:26:31;102661.22;;;7.11;86.26
7584;BME280;3833;41.764;26.204;2022-12-20T10:28:58;102614.94;;;6.76;86.23
7584;BME280;3833;41.764;26.204;2022-12-20T10:31:26;102646.44;;;7.07;86.45
7584;BME280;3833;41.764;26.204;2022-12-20T10:33:54;102663.59;;;6.90;86.05
7584;BME280;3833;41.764;26.204;2022-12-20T10:36:24;102660.78;;;6.72;88.85
7584;BME280;3833;41.764;26.204;2022-12-20T10:38:53;102659.78;;;6.61;90.19
7584;BME280;3833;41.764;26.204;2022-12-20T10:41:22;102669.09;;;6.47;91.35
7584;BME280;3833;41.764;26.204;2022-12-20T10:43:53;102657.91;;;6.50;92.34
7584;BME280;3833;41.764;26.204;2022-12-20T10:46:22;102644.78;;;6.39;93.41
7584;BME280;3833;41.764;26.204;2022-12-20T10:48:49;102617.72;;;6.22;94.79
7584;BME280;3833;41.764;26.204;2022-12-20T10:51:22;102638.88;;;6.51;96.74
7584;BME280;3833;41.764;26.204;2022-12-20T10:53:52;102610.13;;;6.34;95.87
7584;BME280;3833;41.764;26.204;2022-12-20T10:56:21;102634.50;;;6.48;96.52
7584;BME280;3833;41.764;26.204;2022-12-20T10:58:53;102630.25;;;6.53;97.12
7584;BME280;3833;41.764;26.204;2022-12-20T11:01:22;102608.47;;;6.42;96.88
7584;BME280;3833;41.764;26.204;2022-12-20T11:03:53;102628.50;;;6.52;97.19
7584;BME280;3833;41.764;26.204;2022-12-20T11:06:24;102598.09;;;6.39;97.41
7584;BME280;3833;41.764;26.204;2022-12-20T11:08:51;102567.56;;;6.22;98.05
7584;BME280;3833;41.764;26.204;2022-12-20T11:11:20;102615.53;;;6.51;97.95
7584;BME280;3833;41.764;26.204;2022-12-20T11:13:48;102605.28;;;6.61;98.35
7584;BME280;3833;41.764;26.204;2022-12-20T11:16:24;102606.13;;;6.62;98.48
7584;BME280;3833;41.764;26.204;2022-12-20T11:19:00;102607.84;;;6.60;98.53
7584;BME280;3833;41.764;26.204;2022-12-20T11:21:39;102596.63;;;6.64;97.98
7584;BME280;3833;41.764;26.204;2022-12-20T11:24:11;102577.53;;;6.57;98.85
7584;BME280;3833;41.764;26.204;2022-12-20T11:26:54;102596.72;;;6.71;100.00
7584;BME280;3833;41.764;26.204;2022-12-20T11:29:46;102523.66;;;6.35;100.00
7584;BME280;3833;41.764;26.204;2022-12-20T11:32:26;102589.81;;;6.73;100.00
7584;BME280;3833;41.764;26.204;2022-12-20T11:35:05;102571.56;;;6.67;100.00
7584;BME280;3833;41.764;26.204;2022-12-20T11:37:43;102570.88;;;6.83;100.00
7584;BME280;3833;41.764;26.204;2022-12-20T11:40:25;102572.66;;;6.87;100.00
7584;BME280;3833;41.764;26.204;2022-12-20T11:43:16;102554.50;;;6.89;99.86
7584;BME280;3833;41.764;26.204;2022-12-20T11:45:57;102541.53;;;6.90;98.96
7584;BME280;3833;41.764;26.204;2022-12-20T11:48:52;102549.53;;;7.16;98.02
7584;BME280;3833;41.764;26.204;2022-12-20T11:51:33;102544.72;;;7.59;96.21
7584;BME280;3833;41.764;26.204;2022-12-20T11:54:10;102540.44;;;7.70;94.16
7584;BME280;3833;41.764;26.204;2022-12-20T11:56:44;102533.50;;;7.72;92.72
7584;BME280;3833;41.764;26.204;2022-12-20T11:59:19;102512.72;;;7.75;92.30
7584;BME280;3833;41.764;26.204;2022-12-20T12:01:54;102523.19;;;7.84;91.00
7584;BME280;3833;41.764;26.204;2022-12-20T12:04:25;102526.72;;;7.95;90.79
7584;BME280;3833;41.764;26.204;2022-12-20T12:06:57;102519.78;;;7.97;91.33
7584;BME280;3833;41.764;26.204;2022-12-20T12:09:31;102511.94;;;7.89;90.08
7584;BME280;3833;41.764;26.204;2022-12-20T12:12:22;102514.63;;;8.03;90.05
7584;BME280;3833;41.764;26.204;2022-12-20T12:14:58;102502.47;;;8.08;90.64
7584;BME280;3833;41.764;26.204;2022-12-20T12:17:31;102505.03;;;8.00;90.57
7584;BME280;3833;41.764;26.204;2022-12-20T12:20:17;102506.81;;;8.03;91.30
7584;BME280;3833;41.764;26.204;2022-12-20T12:22:49;102514.59;;;8.00;90.57
7584;BME280;3833;41.764;26.204;2022-12-20T12:25:18;102507.69;;;8.05;90.24
7584;BME280;3833;41.764;26.204;2022-12-20T12:27:46;102506.81;;;8.04;89.36
7584;BME280;3833;41.764;26.204;2022-12-20T12:30:14;102499.03;;;8.12;89.08
7584;BME280;3833;41.764;26.204;2022-12-20T12:32:44;102479.91;;;7.98;89.44
7584;BME280;3833;41.764;26.204;2022-12-20T12:35:23;102499.03;;;8.15;90.38
7584;BME280;3833;41.764;26.204;2022-12-20T12:38:07;102486.88;;;8.05;90.38
7584;BME280;3833;41.764;26.204;2022-12-20T12:41:08;102497.28;;;8.02;91.51
7584;BME280;3833;41.764;26.204;2022-12-20T12:43:47;102479.81;;;7.80;93.12
7584;BME280;3833;41.764;26.204;2022-12-20T12:46:17;102498.03;;;7.86;93.79
7584;BME280;3833;41.764;26.204;2022-12-20T12:48:50;102498.88;;;7.79;93.88
7584;BME280;3833;41.764;26.204;2022-12-20T12:51:27;102498.03;;;7.84;95.15
7584;BME280;3833;41.764;26.204;2022-12-20T12:54:11;102498.91;;;7.85;95.68
7584;BME280;3833;41.764;26.204;2022-12-20T12:56:43;102490.19;;;7.74;94.76
7584;BME280;3833;41.764;26.204;2022-12-20T12:59:23;102485.91;;;7.82;95.81
7584;BME280;3833;41.764;26.204;2022-12-20T13:02:33;102482.44;;;7.86;95.25
7584;BME280;3833;41.764;26.204;2022-12-20T13:05:33;102475.50;;;7.83;97.29
7584;BME280;3833;41.764;26.204;2022-12-20T13:08:00;102472.09;;;7.99;97.18
7584;BME280;3833;41.764;26.204;2022-12-20T13:11:00;102475.56;;;8.00;96.19
7584;BME280;3833;41.764;26.204;2022-12-20T13:13:28;102473.00;;;8.03;96.52
7584;BME280;3833;41.764;26.204;2022-12-20T13:16:11;102464.31;;;8.04;95.59
7584;BME280;3833;41.764;26.204;2022-12-20T13:18:59;102446.94;;;7.97;96.30
7584;BME280;3833;41.764;26.204;2022-12-20T13:21:36;102461.72;;;8.08;96.84